sensor_id;sensor_type;location;lat;lon;timestamp;P1;durP1;ratioP1;P2;durP2;ratioP2
19854;SDS011;10088;47.946;2.532;2023-03-14T00:02:07;9.93;;;3.07;;
19854;SDS011;10088;47.946;2.532;2023-03-14T00:04:32;13.33;;;2.40;;
19854;SDS011;10088;47.946;2.532;2023-03-14T00:06:57;6.47;;;1.63;;
19854;SDS011;10088;47.946;2.532;2023-03-14T00:09:22;11.20;;;1.50;;
19854;SDS011;10088;47.946;2.532;2023-03-14T00:11:48;11.10;;;2.40;;
19854;SDS011;10088;47.946;2.532;2023-03-14T00:14:13;6.97;;;1.83;;
19854;SDS011;10088;47.946;2.532;2023-03-14T00:16:40;7.90;;;2.30;;
19854;SDS011;10088;47.946;2.532;2023-03-14T00:19:06;8.27;;;2.30;;
19854;SDS011;10088;47.946;2.532;2023-03-14T00:21:31;12.47;;;3.10;;
19854;SDS011;10088;47.946;2.532;2023-03-14T00:23:56;10.07;;;2.53;;
19854;SDS011;10088;47.946;2.532;2023-03-14T00:26:21;9.30;;;2.03;;
19854;SDS011;10088;47.946;2.532;2023-03-14T00:28:47;12.40;;;2.90;;
19854;SDS011;10088;47.946;2.532;2023-03-14T00:31:15;7.90;;;2.23;;
19854;SDS011;10088;47.946;2.532;2023-03-14T00:33:41;13.70;;;2.80;;
19854;SDS011;10088;47.946;2.532;2023-03-14T00:36:07;6.20;;;1.50;;
19854;SDS011;10088;47.946;2.532;2023-03-14T00:38:34;14.27;;;3.77;;
19854;SDS011;10088;47.946;2.532;2023-03-14T00:41:02;8.27;;;2.40;;
19854;SDS011;10088;47.946;2.532;2023-03-14T00:43:29;11.57;;;3.07;;
19854;SDS011;10088;47.946;2.532;2023-03-14T00:45:54;8.43;;;2.03;;
19854;SDS011;10088;47.946;2.532;2023-03-14T00:48:20;8.43;;;2.40;;
19854;SDS011;10088;47.946;2.532;2023-03-14T00:50:45;14.13;;;2.67;;
19854;SDS011;10088;47.946;2.532;2023-03-14T00:53:11;8.10;;;2.10;;
19854;SDS011;10088;47.946;2.532;2023-03-14T00:55:37;7.37;;;2.47;;
19854;SDS011;10088;47.946;2.532;2023-03-14T00:58:03;16.87;;;3.10;;
19854;SDS011;10088;47.946;2.532;2023-03-14T01:00:28;10.80;;;2.07;;
19854;SDS011;10088;47.946;2.532;2023-03-14T01:02:53;8.47;;;2.00;;
19854;SDS011;10088;47.946;2.532;2023-03-14T01:05:19;7.40;;;1.93;;
19854;SDS011;10088;47.946;2.532;2023-03-14T01:07:44;11.13;;;2.60;;
19854;SDS011;10088;47.946;2.532;2023-03-14T01:10:09;11.73;;;2.70;;
19854;SDS011;10088;47.946;2.532;2023-03-14T01:12:35;17.40;;;2.73;;
19854;SDS011;10088;47.946;2.532;2023-03-14T01:15:00;8.77;;;2.33;;
19854;SDS011;10088;47.946;2.532;2023-03-14T01:17:25;6.47;;;2.17;;
19854;SDS011;10088;47.946;2.532;2023-03-14T01:19:51;10.13;;;2.07;;
19854;SDS011;10088;47.946;2.532;2023-03-14T01:22:16;10.73;;;2.00;;
19854;SDS011;10088;47.946;2.532;2023-03-14T01:24:41;11.63;;;2.50;;
19854;SDS011;10088;47.946;2.532;2023-03-14T01:27:06;10.43;;;2.07;;
19854;SDS011;10088;47.946;2.532;2023-03-14T01:29:32;11.77;;;2.20;;
19854;SDS011;10088;47.946;2.532;2023-03-14T01:31:57;6.27;;;1.80;;
19854;SDS011;10088;47.946;2.532;2023-03-14T01:34:22;10.63;;;2.17;;
19854;SDS011;10088;47.946;2.532;2023-03-14T01:36:48;10.37;;;2.27;;
19854;SDS011;10088;47.946;2.532;2023-03-14T01:39:13;7.53;;;1.90;;
19854;SDS011;10088;47.946;2.532;2023-03-14T01:41:38;11.30;;;2.10;;
19854;SDS011;10088;47.946;2.532;2023-03-14T01:44:04;10.00;;;1.97;;
19854;SDS011;10088;47.946;2.532;2023-03-14T01:46:40;8.60;;;1.97;;
19854;SDS011;10088;47.946;2.532;2023-03-14T01:49:11;10.50;;;2.50;;
19854;SDS011;10088;47.946;2.532;2023-03-14T01:54:12;11.67;;;2.67;;
19854;SDS011;10088;47.946;2.532;2023-03-14T01:56:40;17.23;;;2.60;;
19854;SDS011;10088;47.946;2.532;2023-03-14T01:59:07;8.87;;;2.10;;
19854;SDS011;10088;47.946;2.532;2023-03-14T02:01:33;8.97;;;2.40;;
19854;SDS011;10088;47.946;2.532;2023-03-14T02:04:00;12.30;;;2.77;;
19854;SDS011;10088;47.946;2.532;2023-03-14T02:06:27;10.80;;;2.13;;
19854;SDS011;10088;47.946;2.532;2023-03-14T02:08:54;11.40;;;2.30;;
19854;SDS011;10088;47.946;2.532;2023-03-14T02:11:19;7.87;;;1.80;;
19854;SDS011;10088;47.946;2.532;2023-03-14T02:13:46;8.03;;;2.10;;
19854;SDS011;10088;47.946;2.532;2023-03-14T02:16:11;12.27;;;2.57;;
19854;SDS011;10088;47.946;2.532;2023-03-14T02:18:37;9.77;;;2.27;;
19854;SDS011;10088;47.946;2.532;2023-03-14T02:21:09;11.57;;;2.00;;
19854;SDS011;10088;47.946;2.532;2023-03-14T02:26:06;13.53;;;2.57;;
19854;SDS011;10088;47.946;2.532;2023-03-14T02:28:34;10.30;;;3.30;;
19854;SDS011;10088;47.946;2.532;2023-03-14T02:30:59;11.33;;;2.27;;
19854;SDS011;10088;47.946;2.532;2023-03-14T02:33:25;10.33;;;2.23;;
19854;SDS011;10088;47.946;2.532;2023-03-14T02:35:55;11.13;;;1.97;;
19854;SDS011;10088;47.946;2.532;2023-03-14T02:38:26;8.23;;;1.93;;
19854;SDS011;10088;47.946;2.532;2023-03-14T02:40:54;12.80;;;1.97;;
19854;SDS011;10088;47.946;2.532;2023-03-14T02:43:19;13.80;;;2.73;;
19854;SDS011;10088;47.946;2.532;2023-03-14T02:45:45;13.03;;;2.80;;
19854;SDS011;10088;47.946;2.532;2023-03-14T02:48:12;10.43;;;2.53;;
19854;SDS011;10088;47.946;2.532;2023-03-14T02:50:39;5.40;;;1.37;;
19854;SDS011;10088;47.946;2.532;2023-03-14T02:53:05;9.50;;;1.70;;
19854;SDS011;10088;47.946;2.532;2023-03-14T02:55:30;4.87;;;1.20;;
19854;SDS011;10088;47.946;2.532;2023-03-14T02:57:55;6.00;;;1.20;;
19854;SDS011;10088;47.946;2.532;2023-03-14T03:00:21;9.47;;;1.70;;
19854;SDS011;10088;47.946;2.532;2023-03-14T03:02:46;9.90;;;1.77;;
19854;SDS011;10088;47.946;2.532;2023-03-14T03:05:11;5.10;;;1.33;;
19854;SDS011;10088;47.946;2.532;2023-03-14T03:07:37;10.57;;;1.73;;
19854;SDS011;10088;47.946;2.532;2023-03-14T03:10:02;7.50;;;1.80;;
19854;SDS011;10088;47.946;2.532;2023-03-14T03:12:28;5.40;;;1.40;;
19854;SDS011;10088;47.946;2.532;2023-03-14T03:14:53;9.10;;;1.70;;
19854;SDS011;10088;47.946;2.532;2023-03-14T03:17:18;5.47;;;1.17;;
19854;SDS011;10088;47.946;2.532;2023-03-14T03:19:43;4.37;;;1.27;;
19854;SDS011;10088;47.946;2.532;2023-03-14T03:22:09;6.13;;;1.10;;
19854;SDS011;10088;47.946;2.532;2023-03-14T03:24:34;4.37;;;1.00;;
19854;SDS011;10088;47.946;2.532;2023-03-14T03:26:59;4.20;;;1.00;;
19854;SDS011;10088;47.946;2.532;2023-03-14T03:29:25;3.30;;;1.30;;
19854;SDS011;10088;47.946;2.532;2023-03-14T03:31:50;3.90;;;0.77;;
19854;SDS011;10088;47.946;2.532;2023-03-14T03:34:15;4.27;;;1.03;;
19854;SDS011;10088;47.946;2.532;2023-03-14T03:36:41;4.50;;;1.20;;
19854;SDS011;10088;47.946;2.532;2023-03-14T03:39:06;3.90;;;0.80;;
19854;SDS011;10088;47.946;2.532;2023-03-14T03:41:32;6.20;;;1.20;;
19854;SDS011;10088;47.946;2.532;2023-03-14T03:43:57;2.77;;;1.20;;
19854;SDS011;10088;47.946;2.532;2023-03-14T03:46:23;5.83;;;1.00;;
19854;SDS011;10088;47.946;2.532;2023-03-14T03:48:48;3.27;;;0.70;;
19854;SDS011;10088;47.946;2.532;2023-03-14T03:51:18;6.27;;;1.00;;
19854;SDS011;10088;47.946;2.532;2023-03-14T03:53:44;7.60;;;1.20;;
19854;SDS011;10088;47.946;2.532;2023-03-14T03:56:09;3.57;;;0.90;;
19854;SDS011;10088;47.946;2.532;2023-03-14T03:58:34;2.43;;;0.70;;
19854;SDS011;10088;47.946;2.532;2023-03-14T04:01:00;5.43;;;1.07;;
19854;SDS011;10088;47.946;2.532;2023-03-14T04:03:25;3.67;;;0.60;;
19854;SDS011;10088;47.946;2.532;2023-03-14T04:06:01;3.97;;;0.87;;
19854;SDS011;10088;47.946;2.532;2023-03-14T04:08:26;1.47;;;0.50;;
19854;SDS011;10088;47.946;2.532;2023-03-14T04:10:54;2.27;;;0.60;;
19854;SDS011;10088;47.946;2.532;2023-03-14T04:13:19;6.27;;;0.90;;
19854;SDS011;10088;47.946;2.532;2023-03-14T04:15:44;4.00;;;0.70;;
19854;SDS011;10088;47.946;2.532;2023-03-14T04:18:10;2.87;;;0.70;;
19854;SDS011;10088;47.946;2.532;2023-03-14T04:20:35;2.77;;;0.80;;
19854;SDS011;10088;47.946;2.532;2023-03-14T04:23:00;0.63;;;0.27;;
19854;SDS011;10088;47.946;2.532;2023-03-14T04:25:25;0.93;;;0.33;;
19854;SDS011;10088;47.946;2.532;2023-03-14T04:27:51;1.43;;;0.93;;
19854;SDS011;10088;47.946;2.532;2023-03-14T04:30:16;2.53;;;0.60;;
19854;SDS011;10088;47.946;2.532;2023-03-14T04:32:41;0.33;;;0.20;;
19854;SDS011;10088;47.946;2.532;2023-03-14T04:35:07;0.40;;;0.20;;
19854;SDS011;10088;47.946;2.532;2023-03-14T04:37:32;2.27;;;0.67;;
19854;SDS011;10088;47.946;2.532;2023-03-14T04:39:57;2.37;;;0.60;;
19854;SDS011;10088;47.946;2.532;2023-03-14T04:42:22;0.53;;;0.30;;
19854;SDS011;10088;47.946;2.532;2023-03-14T04:44:48;1.00;;;0.30;;
19854;SDS011;10088;47.946;2.532;2023-03-14T04:47:15;1.03;;;0.33;;
19854;SDS011;10088;47.946;2.532;2023-03-14T04:49:40;0.10;;;0.10;;
19854;SDS011;10088;47.946;2.532;2023-03-14T04:52:05;1.03;;;0.50;;
19854;SDS011;10088;47.946;2.532;2023-03-14T04:54:30;0.60;;;0.20;;
19854;SDS011;10088;47.946;2.532;2023-03-14T04:56:56;0.87;;;0.40;;
19854;SDS011;10088;47.946;2.532;2023-03-14T04:59:21;1.50;;;0.30;;
19854;SDS011;10088;47.946;2.532;2023-03-14T05:01:46;0.37;;;0.30;;
19854;SDS011;10088;47.946;2.532;2023-03-14T05:04:13;1.53;;;0.40;;
19854;SDS011;10088;47.946;2.532;2023-03-14T05:06:38;2.07;;;0.50;;
19854;SDS011;10088;47.946;2.532;2023-03-14T05:09:04;1.20;;;0.40;;
19854;SDS011;10088;47.946;2.532;2023-03-14T05:11:30;1.50;;;0.50;;
19854;SDS011;10088;47.946;2.532;2023-03-14T05:13:55;3.03;;;0.80;;
19854;SDS011;10088;47.946;2.532;2023-03-14T05:16:20;2.87;;;0.50;;
19854;SDS011;10088;47.946;2.532;2023-03-14T05:18:46;0.30;;;0.20;;
19854;SDS011;10088;47.946;2.532;2023-03-14T05:21:11;1.63;;;0.40;;
19854;SDS011;10088;47.946;2.532;2023-03-14T05:23:36;1.00;;;0.40;;
19854;SDS011;10088;47.946;2.532;2023-03-14T05:26:02;1.73;;;0.90;;
19854;SDS011;10088;47.946;2.532;2023-03-14T05:28:27;0.63;;;0.40;;
19854;SDS011;10088;47.946;2.532;2023-03-14T05:30:53;1.30;;;0.23;;
19854;SDS011;10088;47.946;2.532;2023-03-14T05:33:18;1.37;;;0.50;;
19854;SDS011;10088;47.946;2.532;2023-03-14T05:35:44;2.53;;;0.50;;
19854;SDS011;10088;47.946;2.532;2023-03-14T05:38:09;1.93;;;0.70;;
19854;SDS011;10088;47.946;2.532;2023-03-14T05:40:34;0.50;;;0.30;;
19854;SDS011;10088;47.946;2.532;2023-03-14T05:43:00;0.30;;;0.30;;
19854;SDS011;10088;47.946;2.532;2023-03-14T05:45:25;1.23;;;0.40;;
19854;SDS011;10088;47.946;2.532;2023-03-14T05:47:50;2.17;;;0.50;;
19854;SDS011;10088;47.946;2.532;2023-03-14T05:50:16;1.13;;;0.60;;
19854;SDS011;10088;47.946;2.532;2023-03-14T05:52:41;2.97;;;0.53;;
19854;SDS011;10088;47.946;2.532;2023-03-14T05:55:06;0.93;;;0.40;;
19854;SDS011;10088;47.946;2.532;2023-03-14T05:57:32;1.20;;;0.50;;
19854;SDS011;10088;47.946;2.532;2023-03-14T05:59:57;0.87;;;0.30;;
19854;SDS011;10088;47.946;2.532;2023-03-14T06:02:22;0.50;;;0.30;;
19854;SDS011;10088;47.946;2.532;2023-03-14T06:04:48;1.30;;;0.50;;
19854;SDS011;10088;47.946;2.532;2023-03-14T06:07:13;1.27;;;0.50;;
19854;SDS011;10088;47.946;2.532;2023-03-14T06:09:38;1.97;;;0.73;;
19854;SDS011;10088;47.946;2.532;2023-03-14T06:12:04;0.30;;;0.20;;
19854;SDS011;10088;47.946;2.532;2023-03-14T06:14:30;1.70;;;0.50;;
19854;SDS011;10088;47.946;2.532;2023-03-14T06:16:55;0.47;;;0.27;;
19854;SDS011;10088;47.946;2.532;2023-03-14T06:19:20;1.10;;;0.40;;
19854;SDS011;10088;47.946;2.532;2023-03-14T06:21:46;1.37;;;0.47;;
19854;SDS011;10088;47.946;2.532;2023-03-14T06:24:11;1.70;;;0.27;;
19854;SDS011;10088;47.946;2.532;2023-03-14T06:26:37;1.53;;;0.30;;
19854;SDS011;10088;47.946;2.532;2023-03-14T06:29:02;0.90;;;0.30;;
19854;SDS011;10088;47.946;2.532;2023-03-14T06:31:32;1.13;;;0.40;;
19854;SDS011;10088;47.946;2.532;2023-03-14T06:33:57;1.17;;;0.40;;
19854;SDS011;10088;47.946;2.532;2023-03-14T06:36:22;2.87;;;0.40;;
19854;SDS011;10088;47.946;2.532;2023-03-14T06:38:48;0.73;;;0.20;;
19854;SDS011;10088;47.946;2.532;2023-03-14T06:41:13;1.57;;;0.37;;
19854;SDS011;10088;47.946;2.532;2023-03-14T06:43:38;0.77;;;0.43;;
19854;SDS011;10088;47.946;2.532;2023-03-14T06:46:04;2.20;;;0.40;;
19854;SDS011;10088;47.946;2.532;2023-03-14T06:48:29;0.50;;;0.20;;
19854;SDS011;10088;47.946;2.532;2023-03-14T06:50:54;1.87;;;0.30;;
19854;SDS011;10088;47.946;2.532;2023-03-14T06:53:20;4.10;;;0.40;;
19854;SDS011;10088;47.946;2.532;2023-03-14T06:55:45;2.43;;;0.33;;
19854;SDS011;10088;47.946;2.532;2023-03-14T06:58:10;1.23;;;0.60;;
19854;SDS011;10088;47.946;2.532;2023-03-14T07:00:36;2.20;;;0.30;;
19854;SDS011;10088;47.946;2.532;2023-03-14T07:03:01;1.77;;;0.30;;
19854;SDS011;10088;47.946;2.532;2023-03-14T07:05:26;4.77;;;0.60;;
19854;SDS011;10088;47.946;2.532;2023-03-14T07:07:52;1.03;;;0.40;;
19854;SDS011;10088;47.946;2.532;2023-03-14T07:10:17;0.87;;;0.40;;
19854;SDS011;10088;47.946;2.532;2023-03-14T07:12:42;1.27;;;0.40;;
19854;SDS011;10088;47.946;2.532;2023-03-14T07:15:08;0.87;;;0.40;;
19854;SDS011;10088;47.946;2.532;2023-03-14T07:17:33;3.97;;;0.37;;
19854;SDS011;10088;47.946;2.532;2023-03-14T07:19:58;2.40;;;0.70;;
19854;SDS011;10088;47.946;2.532;2023-03-14T07:22:24;1.17;;;0.40;;
19854;SDS011;10088;47.946;2.532;2023-03-14T07:24:49;1.27;;;0.50;;
19854;SDS011;10088;47.946;2.532;2023-03-14T07:27:15;1.87;;;0.40;;
19854;SDS011;10088;47.946;2.532;2023-03-14T07:29:40;0.83;;;0.60;;
19854;SDS011;10088;47.946;2.532;2023-03-14T07:32:05;1.73;;;0.47;;
19854;SDS011;10088;47.946;2.532;2023-03-14T07:34:31;2.27;;;0.73;;
19854;SDS011;10088;47.946;2.532;2023-03-14T07:36:56;5.47;;;1.00;;
19854;SDS011;10088;47.946;2.532;2023-03-14T07:39:21;2.23;;;0.50;;
19854;SDS011;10088;47.946;2.532;2023-03-14T07:41:47;2.23;;;0.77;;
19854;SDS011;10088;47.946;2.532;2023-03-14T07:44:12;3.03;;;0.73;;
19854;SDS011;10088;47.946;2.532;2023-03-14T07:46:37;3.90;;;0.97;;
19854;SDS011;10088;47.946;2.532;2023-03-14T07:49:02;3.67;;;0.90;;
19854;SDS011;10088;47.946;2.532;2023-03-14T07:51:28;6.10;;;2.00;;
19854;SDS011;10088;47.946;2.532;2023-03-14T07:53:53;2.40;;;0.63;;
19854;SDS011;10088;47.946;2.532;2023-03-14T07:56:18;4.37;;;0.90;;
19854;SDS011;10088;47.946;2.532;2023-03-14T07:58:44;8.07;;;2.47;;
19854;SDS011;10088;47.946;2.532;2023-03-14T08:01:09;3.43;;;1.03;;
19854;SDS011;10088;47.946;2.532;2023-03-14T08:03:35;3.60;;;1.37;;
19854;SDS011;10088;47.946;2.532;2023-03-14T08:06:00;6.30;;;1.50;;
19854;SDS011;10088;47.946;2.532;2023-03-14T08:08:25;5.67;;;2.10;;
19854;SDS011;10088;47.946;2.532;2023-03-14T08:10:50;5.07;;;1.20;;
19854;SDS011;10088;47.946;2.532;2023-03-14T08:13:16;7.57;;;1.40;;
19854;SDS011;10088;47.946;2.532;2023-03-14T08:15:41;5.37;;;1.47;;
19854;SDS011;10088;47.946;2.532;2023-03-14T08:18:06;5.87;;;1.70;;
19854;SDS011;10088;47.946;2.532;2023-03-14T08:20:32;4.87;;;1.40;;
19854;SDS011;10088;47.946;2.532;2023-03-14T08:22:58;10.30;;;2.83;;
19854;SDS011;10088;47.946;2.532;2023-03-14T08:25:24;8.20;;;1.97;;
19854;SDS011;10088;47.946;2.532;2023-03-14T08:27:49;10.93;;;1.70;;
19854;SDS011;10088;47.946;2.532;2023-03-14T08:30:15;6.13;;;1.73;;
19854;SDS011;10088;47.946;2.532;2023-03-14T08:32:41;8.17;;;2.33;;
19854;SDS011;10088;47.946;2.532;2023-03-14T08:35:06;9.30;;;2.43;;
19854;SDS011;10088;47.946;2.532;2023-03-14T08:37:32;6.63;;;1.50;;
19854;SDS011;10088;47.946;2.532;2023-03-14T08:39:57;6.13;;;1.80;;
19854;SDS011;10088;47.946;2.532;2023-03-14T08:42:23;5.67;;;1.10;;
19854;SDS011;10088;47.946;2.532;2023-03-14T08:44:48;5.63;;;1.23;;
19854;SDS011;10088;47.946;2.532;2023-03-14T08:47:14;6.97;;;1.77;;
19854;SDS011;10088;47.946;2.532;2023-03-14T08:49:39;5.17;;;1.43;;
19854;SDS011;10088;47.946;2.532;2023-03-14T08:52:04;4.10;;;1.00;;
19854;SDS011;10088;47.946;2.532;2023-03-14T08:54:30;3.67;;;1.10;;
19854;SDS011;10088;47.946;2.532;2023-03-14T08:56:55;5.87;;;1.33;;
19854;SDS011;10088;47.946;2.532;2023-03-14T08:59:21;3.07;;;1.10;;
19854;SDS011;10088;47.946;2.532;2023-03-14T09:01:46;4.10;;;1.43;;
19854;SDS011;10088;47.946;2.532;2023-03-14T09:04:12;4.13;;;1.23;;
19854;SDS011;10088;47.946;2.532;2023-03-14T09:06:37;3.20;;;0.70;;
19854;SDS011;10088;47.946;2.532;2023-03-14T09:09:02;4.53;;;0.93;;
19854;SDS011;10088;47.946;2.532;2023-03-14T09:11:28;2.07;;;1.07;;
19854;SDS011;10088;47.946;2.532;2023-03-14T09:13:53;4.80;;;0.80;;
19854;SDS011;10088;47.946;2.532;2023-03-14T09:16:18;1.60;;;0.57;;
19854;SDS011;10088;47.946;2.532;2023-03-14T09:18:43;4.13;;;0.60;;
19854;SDS011;10088;47.946;2.532;2023-03-14T09:21:09;3.10;;;0.50;;
19854;SDS011;10088;47.946;2.532;2023-03-14T09:23:34;1.60;;;0.53;;
19854;SDS011;10088;47.946;2.532;2023-03-14T09:25:59;2.87;;;0.67;;
19854;SDS011;10088;47.946;2.532;2023-03-14T09:28:25;3.40;;;0.73;;
19854;SDS011;10088;47.946;2.532;2023-03-14T09:30:50;1.10;;;0.50;;
19854;SDS011;10088;47.946;2.532;2023-03-14T09:33:16;2.00;;;0.73;;
19854;SDS011;10088;47.946;2.532;2023-03-14T09:35:41;4.57;;;1.03;;
19854;SDS011;10088;47.946;2.532;2023-03-14T09:38:07;2.33;;;0.70;;
19854;SDS011;10088;47.946;2.532;2023-03-14T09:40:33;2.87;;;0.93;;
19854;SDS011;10088;47.946;2.532;2023-03-14T09:42:59;2.43;;;0.83;;
19854;SDS011;10088;47.946;2.532;2023-03-14T09:47:50;3.60;;;0.90;;
19854;SDS011;10088;47.946;2.532;2023-03-14T09:50:15;2.13;;;0.47;;
19854;SDS011;10088;47.946;2.532;2023-03-14T09:52:42;2.40;;;0.63;;
19854;SDS011;10088;47.946;2.532;2023-03-14T09:55:19;0.87;;;0.50;;
19854;SDS011;10088;47.946;2.532;2023-03-14T09:57:46;1.30;;;0.60;;
19854;SDS011;10088;47.946;2.532;2023-03-14T10:00:26;0.93;;;0.50;;
19854;SDS011;10088;47.946;2.532;2023-03-14T10:02:53;0.80;;;0.73;;
19854;SDS011;10088;47.946;2.532;2023-03-14T10:05:20;3.33;;;0.80;;
19854;SDS011;10088;47.946;2.532;2023-03-14T10:07:45;0.37;;;0.37;;
19854;SDS011;10088;47.946;2.532;2023-03-14T10:10:13;1.47;;;0.60;;
19854;SDS011;10088;47.946;2.532;2023-03-14T10:12:40;2.97;;;0.93;;
19854;SDS011;10088;47.946;2.532;2023-03-14T10:17:40;1.87;;;0.77;;
19854;SDS011;10088;47.946;2.532;2023-03-14T10:20:05;2.00;;;0.83;;
19854;SDS011;10088;47.946;2.532;2023-03-14T10:22:31;2.60;;;0.87;;
19854;SDS011;10088;47.946;2.532;2023-03-14T10:24:57;3.23;;;1.43;;
19854;SDS011;10088;47.946;2.532;2023-03-14T10:27:29;2.33;;;0.80;;
19854;SDS011;10088;47.946;2.532;2023-03-14T10:29:56;3.17;;;0.97;;
19854;SDS011;10088;47.946;2.532;2023-03-14T10:32:23;2.30;;;1.00;;
19854;SDS011;10088;47.946;2.532;2023-03-14T10:35:05;4.53;;;1.17;;
19854;SDS011;10088;47.946;2.532;2023-03-14T10:37:31;2.60;;;0.80;;
19854;SDS011;10088;47.946;2.532;2023-03-14T10:40:00;3.13;;;0.90;;
19854;SDS011;10088;47.946;2.532;2023-03-14T10:42:34;3.93;;;1.17;;
19854;SDS011;10088;47.946;2.532;2023-03-14T10:45:05;2.83;;;1.00;;
19854;SDS011;10088;47.946;2.532;2023-03-14T10:47:33;5.20;;;1.43;;
19854;SDS011;10088;47.946;2.532;2023-03-14T10:50:18;3.30;;;1.00;;
19854;SDS011;10088;47.946;2.532;2023-03-14T10:52:47;2.57;;;0.90;;
19854;SDS011;10088;47.946;2.532;2023-03-14T10:55:13;6.00;;;0.80;;
19854;SDS011;10088;47.946;2.532;2023-03-14T10:57:42;3.30;;;0.83;;
19854;SDS011;10088;47.946;2.532;2023-03-14T11:08:08;1.97;;;0.70;;
19854;SDS011;10088;47.946;2.532;2023-03-14T11:10:35;3.70;;;0.60;;
19854;SDS011;10088;47.946;2.532;2023-03-14T11:20:38;3.83;;;0.90;;
19854;SDS011;10088;47.946;2.532;2023-03-14T11:25:32;6.93;;;1.07;;
19854;SDS011;10088;47.946;2.532;2023-03-14T11:30:42;4.57;;;1.13;;
19854;SDS011;10088;47.946;2.532;2023-03-14T11:33:16;5.00;;;1.50;;
19854;SDS011;10088;47.946;2.532;2023-03-14T11:38:46;6.03;;;1.50;;
19854;SDS011;10088;47.946;2.532;2023-03-14T11:41:04;3.53;;;0.90;;
19854;SDS011;10088;47.946;2.532;2023-03-14T11:43:35;9.00;;;1.70;;
19854;SDS011;10088;47.946;2.532;2023-03-14T11:46:07;3.50;;;1.30;;
19854;SDS011;10088;47.946;2.532;2023-03-14T11:51:28;1.90;;;0.80;;
19854;SDS011;10088;47.946;2.532;2023-03-14T11:56:33;5.93;;;1.80;;
19854;SDS011;10088;47.946;2.532;2023-03-14T11:59:04;7.47;;;1.63;;
19854;SDS011;10088;47.946;2.532;2023-03-14T12:01:33;4.73;;;0.83;;
19854;SDS011;10088;47.946;2.532;2023-03-14T12:04:02;7.50;;;1.60;;
19854;SDS011;10088;47.946;2.532;2023-03-14T12:09:05;5.03;;;1.10;;
19854;SDS011;10088;47.946;2.532;2023-03-14T12:11:33;2.03;;;0.77;;
19854;SDS011;10088;47.946;2.532;2023-03-14T12:14:00;4.10;;;1.17;;
19854;SDS011;10088;47.946;2.532;2023-03-14T12:18:51;7.47;;;1.87;;
19854;SDS011;10088;47.946;2.532;2023-03-14T12:21:17;3.10;;;1.30;;
19854;SDS011;10088;47.946;2.532;2023-03-14T12:23:49;5.00;;;1.10;;
19854;SDS011;10088;47.946;2.532;2023-03-14T12:26:17;3.93;;;1.23;;
19854;SDS011;10088;47.946;2.532;2023-03-14T12:41:41;7.67;;;1.00;;
19854;SDS011;10088;47.946;2.532;2023-03-14T12:46:53;2.83;;;1.03;;
19854;SDS011;10088;47.946;2.532;2023-03-14T12:49:18;3.77;;;1.20;;
19854;SDS011;10088;47.946;2.532;2023-03-14T12:51:44;4.93;;;1.43;;
19854;SDS011;10088;47.946;2.532;2023-03-14T12:56:56;6.37;;;1.03;;
19854;SDS011;10088;47.946;2.532;2023-03-14T12:59:31;7.40;;;1.30;;
19854;SDS011;10088;47.946;2.532;2023-03-14T13:04:30;3.77;;;0.87;;
19854;SDS011;10088;47.946;2.532;2023-03-14T13:06:57;5.27;;;1.30;;
19854;SDS011;10088;47.946;2.532;2023-03-14T13:11:56;4.43;;;1.87;;
19854;SDS011;10088;47.946;2.532;2023-03-14T13:14:25;3.37;;;1.00;;
19854;SDS011;10088;47.946;2.532;2023-03-14T13:16:52;4.57;;;0.90;;
19854;SDS011;10088;47.946;2.532;2023-03-14T13:19:25;2.93;;;1.00;;
19854;SDS011;10088;47.946;2.532;2023-03-14T13:21:51;3.43;;;0.87;;
19854;SDS011;10088;47.946;2.532;2023-03-14T13:24:22;3.83;;;0.80;;
19854;SDS011;10088;47.946;2.532;2023-03-14T13:26:48;3.80;;;1.20;;
19854;SDS011;10088;47.946;2.532;2023-03-14T13:29:19;5.77;;;1.20;;
19854;SDS011;10088;47.946;2.532;2023-03-14T13:31:45;4.17;;;0.90;;
19854;SDS011;10088;47.946;2.532;2023-03-14T13:34:11;3.63;;;1.20;;
19854;SDS011;10088;47.946;2.532;2023-03-14T13:36:37;2.20;;;0.90;;
19854;SDS011;10088;47.946;2.532;2023-03-14T13:39:02;2.10;;;0.70;;
19854;SDS011;10088;47.946;2.532;2023-03-14T13:41:29;6.67;;;1.33;;
19854;SDS011;10088;47.946;2.532;2023-03-14T13:43:58;4.20;;;1.00;;
19854;SDS011;10088;47.946;2.532;2023-03-14T13:46:25;6.10;;;1.07;;
19854;SDS011;10088;47.946;2.532;2023-03-14T13:49:04;6.20;;;1.30;;
19854;SDS011;10088;47.946;2.532;2023-03-14T13:51:30;2.57;;;0.97;;
19854;SDS011;10088;47.946;2.532;2023-03-14T13:53:58;3.07;;;1.00;;
19854;SDS011;10088;47.946;2.532;2023-03-14T13:56:28;3.77;;;1.00;;
19854;SDS011;10088;47.946;2.532;2023-03-14T13:58:54;4.03;;;1.17;;
19854;SDS011;10088;47.946;2.532;2023-03-14T14:01:23;3.80;;;1.10;;
19854;SDS011;10088;47.946;2.532;2023-03-14T14:03:50;5.27;;;1.10;;
19854;SDS011;10088;47.946;2.532;2023-03-14T14:08:44;2.60;;;0.90;;
19854;SDS011;10088;47.946;2.532;2023-03-14T14:11:10;4.70;;;1.30;;
19854;SDS011;10088;47.946;2.532;2023-03-14T14:13:39;5.40;;;1.03;;
19854;SDS011;10088;47.946;2.532;2023-03-14T14:16:04;5.47;;;1.33;;
19854;SDS011;10088;47.946;2.532;2023-03-14T14:18:30;6.73;;;1.50;;
19854;SDS011;10088;47.946;2.532;2023-03-14T14:20:56;3.73;;;1.00;;
19854;SDS011;10088;47.946;2.532;2023-03-14T14:23:22;2.90;;;1.17;;
19854;SDS011;10088;47.946;2.532;2023-03-14T14:25:54;3.97;;;1.40;;
19854;SDS011;10088;47.946;2.532;2023-03-14T14:30:45;3.40;;;1.20;;
19854;SDS011;10088;47.946;2.532;2023-03-14T14:33:12;2.77;;;0.93;;
19854;SDS011;10088;47.946;2.532;2023-03-14T14:35:41;8.03;;;1.40;;
19854;SDS011;10088;47.946;2.532;2023-03-14T14:38:15;5.03;;;1.10;;
19854;SDS011;10088;47.946;2.532;2023-03-14T14:40:45;3.63;;;1.13;;
19854;SDS011;10088;47.946;2.532;2023-03-14T14:43:11;5.47;;;1.27;;
19854;SDS011;10088;47.946;2.532;2023-03-14T14:45:39;2.43;;;0.63;;
19854;SDS011;10088;47.946;2.532;2023-03-14T14:48:09;3.40;;;1.30;;
19854;SDS011;10088;47.946;2.532;2023-03-14T14:53:48;4.17;;;0.93;;
19854;SDS011;10088;47.946;2.532;2023-03-14T14:55:53;2.47;;;0.77;;
19854;SDS011;10088;47.946;2.532;2023-03-14T14:58:26;2.17;;;0.77;;
19854;SDS011;10088;47.946;2.532;2023-03-14T15:00:54;4.40;;;1.00;;
19854;SDS011;10088;47.946;2.532;2023-03-14T15:03:20;3.40;;;1.13;;
19854;SDS011;10088;47.946;2.532;2023-03-14T15:05:46;3.50;;;1.10;;
19854;SDS011;10088;47.946;2.532;2023-03-14T15:08:11;2.90;;;0.90;;
19854;SDS011;10088;47.946;2.532;2023-03-14T15:10:37;2.43;;;1.23;;
19854;SDS011;10088;47.946;2.532;2023-03-14T15:13:02;3.40;;;1.03;;
19854;SDS011;10088;47.946;2.532;2023-03-14T15:15:27;5.43;;;1.40;;
19854;SDS011;10088;47.946;2.532;2023-03-14T15:17:53;1.40;;;0.50;;
19854;SDS011;10088;47.946;2.532;2023-03-14T15:20:18;4.03;;;0.80;;
19854;SDS011;10088;47.946;2.532;2023-03-14T15:22:44;4.53;;;0.97;;
19854;SDS011;10088;47.946;2.532;2023-03-14T15:25:10;2.73;;;1.00;;
19854;SDS011;10088;47.946;2.532;2023-03-14T15:27:36;4.83;;;1.10;;
19854;SDS011;10088;47.946;2.532;2023-03-14T15:30:01;2.93;;;0.87;;
19854;SDS011;10088;47.946;2.532;2023-03-14T15:32:27;3.87;;;1.30;;
19854;SDS011;10088;47.946;2.532;2023-03-14T15:34:54;3.63;;;1.07;;
19854;SDS011;10088;47.946;2.532;2023-03-14T15:37:19;9.00;;;1.50;;
19854;SDS011;10088;47.946;2.532;2023-03-14T15:39:44;6.27;;;1.30;;
19854;SDS011;10088;47.946;2.532;2023-03-14T15:42:10;4.17;;;1.07;;
19854;SDS011;10088;47.946;2.532;2023-03-14T15:44:35;5.13;;;1.73;;
19854;SDS011;10088;47.946;2.532;2023-03-14T15:47:01;3.20;;;0.90;;
19854;SDS011;10088;47.946;2.532;2023-03-14T15:49:26;3.57;;;1.13;;
19854;SDS011;10088;47.946;2.532;2023-03-14T15:51:51;2.67;;;0.70;;
19854;SDS011;10088;47.946;2.532;2023-03-14T15:54:17;3.87;;;1.03;;
19854;SDS011;10088;47.946;2.532;2023-03-14T15:56:42;4.30;;;1.00;;